sensor_id;sensor_type;location;lat;lon;timestamp;pressure;altitude;pressure_sealevel;temperature;humidity
16595;BME280;8410;52.532;13.336;2023-07-16T00:00:17;100258.50;;;26.63;68.25
16595;BME280;8410;52.532;13.336;2023-07-16T00:02:46;100270.63;;;26.37;68.81
16595;BME280;8410;52.532;13.336;2023-07-16T00:05:14;100282.63;;;26.57;69.17
16595;BME280;8410;52.532;13.336;2023-07-16T00:07:42;100273.44;;;26.91;67.54
16595;BME280;8410;52.532;13.336;2023-07-16T00:10:11;100281.38;;;26.91;67.56
16595;BME280;8410;52.532;13.336;2023-07-16T00:12:39;100264.81;;;27.16;66.92
16595;BME280;8410;52.532;13.336;2023-07-16T00:15:07;100259.53;;;27.16;66.46
16595;BME280;8410;52.532;13.336;2023-07-16T00:17:35;100258.44;;;27.06;66.80
16595;BME280;8410;52.532;13.336;2023-07-16T00:20:03;100252.13;;;26.94;68.08
16595;BME280;8410;52.532;13.336;2023-07-16T00:22:32;100259.16;;;26.52;68.92
16595;BME280;8410;52.532;13.336;2023-07-16T00:24:59;100267.59;;;26.43;70.59
16595;BME280;8410;52.532;13.336;2023-07-16T00:27:28;100266.31;;;26.50;70.23
16595;BME280;8410;52.532;13.336;2023-07-16T00:29:56;100272.94;;;26.57;69.95
16595;BME280;8410;52.532;13.336;2023-07-16T00:32:23;100279.16;;;26.71;68.86
16595;BME280;8410;52.532;13.336;2023-07-16T00:34:51;100280.38;;;26.65;68.78
16595;BME280;8410;52.532;13.336;2023-07-16T00:37:18;100283.84;;;26.51;69.82
16595;BME280;8410;52.532;13.336;2023-07-16T00:39:46;100289.63;;;26.13;72.66
16595;BME280;8410;52.532;13.336;2023-07-16T00:42:13;100279.13;;;26.42;70.57
16595;BME280;8410;52.532;13.336;2023-07-16T00:44:42;100296.84;;;26.40;70.09
16595;BME280;8410;52.532;13.336;2023-07-16T00:47:10;100304.75;;;26.40;70.96
16595;BME280;8410;52.532;13.336;2023-07-16T00:49:38;100320.31;;;26.45;70.18
16595;BME280;8410;52.532;13.336;2023-07-16T00:52:09;100340.25;;;25.90;72.81
16595;BME280;8410;52.532;13.336;2023-07-16T00:54:39;100359.69;;;26.03;72.07
16595;BME280;8410;52.532;13.336;2023-07-16T00:57:07;100373.16;;;26.29;70.98
16595;BME280;8410;52.532;13.336;2023-07-16T00:59:34;100390.56;;;26.47;71.26
16595;BME280;8410;52.532;13.336;2023-07-16T01:02:03;100389.50;;;26.80;70.02
16595;BME280;8410;52.532;13.336;2023-07-16T01:04:31;100402.22;;;26.13;72.10
16595;BME280;8410;52.532;13.336;2023-07-16T01:07:01;100411.47;;;26.36;70.67
16595;BME280;8410;52.532;13.336;2023-07-16T01:09:32;100432.06;;;26.59;69.79
16595;BME280;8410;52.532;13.336;2023-07-16T01:12:05;100442.31;;;26.80;68.71
16595;BME280;8410;52.532;13.336;2023-07-16T01:14:32;100481.59;;;26.40;69.52
16595;BME280;8410;52.532;13.336;2023-07-16T01:17:04;100507.88;;;26.73;68.37
16595;BME280;8410;52.532;13.336;2023-07-16T01:19:33;100516.50;;;26.61;70.11
16595;BME280;8410;52.532;13.336;2023-07-16T01:22:12;100531.84;;;26.23;71.76
16595;BME280;8410;52.532;13.336;2023-07-16T01:25:01;100541.88;;;26.48;70.34
16595;BME280;8410;52.532;13.336;2023-07-16T01:27:50;100546.78;;;26.70;70.96
16595;BME280;8410;52.532;13.336;2023-07-16T01:30:26;100560.53;;;26.13;72.66
16595;BME280;8410;52.532;13.336;2023-07-16T01:32:55;100575.25;;;26.33;72.76
16595;BME280;8410;52.532;13.336;2023-07-16T01:35:23;100569.94;;;25.52;77.77
16595;BME280;8410;52.532;13.336;2023-07-16T01:37:51;100567.66;;;26.11;73.94
16595;BME280;8410;52.532;13.336;2023-07-16T01:40:19;100575.00;;;26.22;72.67
16595;BME280;8410;52.532;13.336;2023-07-16T01:42:46;100577.13;;;26.15;73.30
16595;BME280;8410;52.532;13.336;2023-07-16T01:45:13;100575.69;;;26.25;70.90
16595;BME280;8410;52.532;13.336;2023-07-16T01:47:50;100575.59;;;26.27;71.86
16595;BME280;8410;52.532;13.336;2023-07-16T01:50:22;100571.44;;;26.07;71.91
16595;BME280;8410;52.532;13.336;2023-07-16T01:52:49;100567.25;;;26.34;70.32
16595;BME280;8410;52.532;13.336;2023-07-16T01:55:17;100558.66;;;26.47;70.76
16595;BME280;8410;52.532;13.336;2023-07-16T01:57:45;100573.06;;;26.25;70.86
16595;BME280;8410;52.532;13.336;2023-07-16T02:00:12;100583.84;;;26.21;70.84
16595;BME280;8410;52.532;13.336;2023-07-16T02:02:40;100577.22;;;26.29;70.37
16595;BME280;8410;52.532;13.336;2023-07-16T02:05:09;100589.56;;;26.13;70.33
16595;BME280;8410;52.532;13.336;2023-07-16T02:07:36;100578.06;;;26.30;70.66
16595;BME280;8410;52.532;13.336;2023-07-16T02:10:05;100575.59;;;26.27;70.37
16595;BME280;8410;52.532;13.336;2023-07-16T02:12:32;100570.06;;;25.66;73.49
16595;BME280;8410;52.532;13.336;2023-07-16T02:15:00;100573.06;;;25.43;74.05
16595;BME280;8410;52.532;13.336;2023-07-16T02:17:27;100563.47;;;25.24;74.75
16595;BME280;8410;52.532;13.336;2023-07-16T02:19:55;100552.09;;;25.90;72.58
16595;BME280;8410;52.532;13.336;2023-07-16T02:22:24;100564.97;;;26.12;71.68
16595;BME280;8410;52.532;13.336;2023-07-16T02:24:51;100575.75;;;25.92;72.81
16595;BME280;8410;52.532;13.336;2023-07-16T02:27:19;100574.63;;;24.39;82.06
16595;BME280;8410;52.532;13.336;2023-07-16T02:29:46;100572.13;;;24.92;79.20
16595;BME280;8410;52.532;13.336;2023-07-16T02:32:14;100583.72;;;24.70;82.02
16595;BME280;8410;52.532;13.336;2023-07-16T02:34:41;100588.63;;;24.59;83.98
16595;BME280;8410;52.532;13.336;2023-07-16T02:37:09;100581.34;;;24.28;86.57
16595;BME280;8410;52.532;13.336;2023-07-16T02:39:38;100560.34;;;24.81;84.42
16595;BME280;8410;52.532;13.336;2023-07-16T02:42:05;100549.34;;;25.08;83.88
16595;BME280;8410;52.532;13.336;2023-07-16T02:44:33;100546.72;;;25.08;84.15
16595;BME280;8410;52.532;13.336;2023-07-16T02:47:04;100554.78;;;25.05;84.14
16595;BME280;8410;52.532;13.336;2023-07-16T02:49:32;100567.47;;;25.14;83.04
16595;BME280;8410;52.532;13.336;2023-07-16T02:51:59;100578.78;;;24.99;84.79
16595;BME280;8410;52.532;13.336;2023-07-16T02:54:26;100587.25;;;24.69;85.92
16595;BME280;8410;52.532;13.336;2023-07-16T02:56:55;100593.56;;;24.48;87.61
16595;BME280;8410;52.532;13.336;2023-07-16T02:59:23;100588.25;;;24.11;90.22
16595;BME280;8410;52.532;13.336;2023-07-16T03:01:51;100584.88;;;24.64;87.82
16595;BME280;8410;52.532;13.336;2023-07-16T03:04:18;100589.13;;;24.29;88.06
16595;BME280;8410;52.532;13.336;2023-07-16T03:06:46;100585.31;;;24.17;89.99
16595;BME280;8410;52.532;13.336;2023-07-16T03:09:13;100572.47;;;24.67;86.94
16595;BME280;8410;52.532;13.336;2023-07-16T03:11:41;100565.25;;;24.53;88.49
16595;BME280;8410;52.532;13.336;2023-07-16T03:14:10;100561.09;;;24.66;87.04
16595;BME280;8410;52.532;13.336;2023-07-16T03:16:37;100553.59;;;24.76;87.72
16595;BME280;8410;52.532;13.336;2023-07-16T03:19:05;100548.34;;;24.20;89.60
16595;BME280;8410;52.532;13.336;2023-07-16T03:21:33;100560.00;;;24.15;91.62
16595;BME280;8410;52.532;13.336;2023-07-16T03:24:00;100548.63;;;24.33;91.07
16595;BME280;8410;52.532;13.336;2023-07-16T03:26:28;100533.81;;;24.50;88.08
16595;BME280;8410;52.532;13.336;2023-07-16T03:28:55;100522.91;;;24.02;90.34
16595;BME280;8410;52.532;13.336;2023-07-16T03:31:24;100518.47;;;24.40;90.41
16595;BME280;8410;52.532;13.336;2023-07-16T03:33:51;100556.56;;;24.51;89.59
16595;BME280;8410;52.532;13.336;2023-07-16T03:36:19;100568.03;;;24.31;91.56
16595;BME280;8410;52.532;13.336;2023-07-16T03:38:46;100564.97;;;24.76;88.60
16595;BME280;8410;52.532;13.336;2023-07-16T03:41:14;100552.75;;;24.93;87.31
16595;BME280;8410;52.532;13.336;2023-07-16T03:43:41;100524.19;;;23.93;92.66
16595;BME280;8410;52.532;13.336;2023-07-16T03:46:09;100552.16;;;24.32;91.25
16595;BME280;8410;52.532;13.336;2023-07-16T03:48:38;100566.78;;;24.76;87.94
16595;BME280;8410;52.532;13.336;2023-07-16T03:51:05;100575.94;;;24.67;87.71
16595;BME280;8410;52.532;13.336;2023-07-16T03:53:33;100575.19;;;24.65;85.84
16595;BME280;8410;52.532;13.336;2023-07-16T03:56:00;100568.81;;;24.52;87.59
16595;BME280;8410;52.532;13.336;2023-07-16T03:58:27;100574.50;;;24.24;88.91
16595;BME280;8410;52.532;13.336;2023-07-16T04:00:55;100568.03;;;24.50;86.55
16595;BME280;8410;52.532;13.336;2023-07-16T04:03:23;100565.44;;;24.84;85.76
16595;BME280;8410;52.532;13.336;2023-07-16T04:05:52;100578.56;;;24.12;87.70
16595;BME280;8410;52.532;13.336;2023-07-16T04:08:27;100571.66;;;24.47;87.17
16595;BME280;8410;52.532;13.336;2023-07-16T04:10:55;100570.47;;;24.72;85.24
16595;BME280;8410;52.532;13.336;2023-07-16T04:13:22;100565.34;;;24.69;85.49
16595;BME280;8410;52.532;13.336;2023-07-16T04:15:50;100559.81;;;24.01;88.51
16595;BME280;8410;52.532;13.336;2023-07-16T04:18:19;100542.38;;;24.17;87.21
16595;BME280;8410;52.532;13.336;2023-07-16T04:20:46;100542.78;;;24.46;86.81
16595;BME280;8410;52.532;13.336;2023-07-16T04:23:15;100560.97;;;24.31;87.30
16595;BME280;8410;52.532;13.336;2023-07-16T04:25:43;100576.78;;;24.50;85.27
16595;BME280;8410;52.532;13.336;2023-07-16T04:28:11;100576.69;;;23.76;90.24
16595;BME280;8410;52.532;13.336;2023-07-16T04:30:38;100584.97;;;24.25;86.90
16595;BME280;8410;52.532;13.336;2023-07-16T04:33:06;100585.50;;;24.51;85.32
16595;BME280;8410;52.532;13.336;2023-07-16T04:35:34;100588.28;;;24.48;86.04
16595;BME280;8410;52.532;13.336;2023-07-16T04:38:01;100598.41;;;24.38;85.76
16595;BME280;8410;52.532;13.336;2023-07-16T04:40:30;100591.63;;;24.87;82.87
16595;BME280;8410;52.532;13.336;2023-07-16T04:42:57;100576.91;;;24.28;85.96
16595;BME280;8410;52.532;13.336;2023-07-16T04:45:25;100585.22;;;24.19;86.68
16595;BME280;8410;52.532;13.336;2023-07-16T04:47:52;100594.53;;;23.88;88.37
16595;BME280;8410;52.532;13.336;2023-07-16T04:50:20;100599.94;;;23.85;89.74
16595;BME280;8410;52.532;13.336;2023-07-16T04:52:47;100610.81;;;24.34;86.05
16595;BME280;8410;52.532;13.336;2023-07-16T04:55:15;100633.00;;;24.67;83.54
16595;BME280;8410;52.532;13.336;2023-07-16T04:57:44;100622.13;;;23.98;88.31
16595;BME280;8410;52.532;13.336;2023-07-16T05:00:12;100626.47;;;24.37;84.99
16595;BME280;8410;52.532;13.336;2023-07-16T05:02:40;100626.31;;;24.78;82.60
16595;BME280;8410;52.532;13.336;2023-07-16T05:05:08;100645.22;;;24.30;85.85
16595;BME280;8410;52.532;13.336;2023-07-16T05:07:35;100665.19;;;24.91;82.96
16595;BME280;8410;52.532;13.336;2023-07-16T05:10:03;100665.56;;;24.47;84.42
16595;BME280;8410;52.532;13.336;2023-07-16T05:12:31;100660.72;;;24.93;82.04
16595;BME280;8410;52.532;13.336;2023-07-16T05:15:00;100660.06;;;24.70;83.07
16595;BME280;8410;52.532;13.336;2023-07-16T05:17:27;100678.31;;;24.92;80.92
16595;BME280;8410;52.532;13.336;2023-07-16T05:19:55;100662.81;;;24.29;86.01
16595;BME280;8410;52.532;13.336;2023-07-16T05:22:22;100648.25;;;24.22;84.87
16595;BME280;8410;52.532;13.336;2023-07-16T05:24:50;100652.44;;;25.19;81.17
16595;BME280;8410;52.532;13.336;2023-07-16T05:27:17;100653.81;;;25.44;78.63
16595;BME280;8410;52.532;13.336;2023-07-16T05:29:45;100645.75;;;26.31;76.41
16595;BME280;8410;52.532;13.336;2023-07-16T05:32:14;100652.56;;;26.35;75.97
16595;BME280;8410;52.532;13.336;2023-07-16T05:34:41;100650.06;;;27.41;71.71
16595;BME280;8410;52.532;13.336;2023-07-16T05:37:09;100658.72;;;26.51;74.21
16595;BME280;8410;52.532;13.336;2023-07-16T05:39:37;100657.34;;;26.44;75.21
16595;BME280;8410;52.532;13.336;2023-07-16T05:42:05;100658.78;;;26.01;76.13
16595;BME280;8410;52.532;13.336;2023-07-16T05:44:33;100663.09;;;26.35;74.54
16595;BME280;8410;52.532;13.336;2023-07-16T05:47:00;100663.69;;;26.57;74.92
16595;BME280;8410;52.532;13.336;2023-07-16T05:49:29;100658.03;;;26.79;73.97
16595;BME280;8410;52.532;13.336;2023-07-16T05:51:57;100659.56;;;26.68;73.18
16595;BME280;8410;52.532;13.336;2023-07-16T05:54:25;100657.00;;;26.82;73.88
16595;BME280;8410;52.532;13.336;2023-07-16T05:56:52;100662.66;;;26.76;73.19
16595;BME280;8410;52.532;13.336;2023-07-16T05:59:20;100665.75;;;26.98;72.07
16595;BME280;8410;52.532;13.336;2023-07-16T06:01:47;100661.03;;;27.35;71.55
16595;BME280;8410;52.532;13.336;2023-07-16T06:04:15;100658.97;;;27.40;71.47
16595;BME280;8410;52.532;13.336;2023-07-16T06:06:44;100663.13;;;26.98;73.43
16595;BME280;8410;52.532;13.336;2023-07-16T06:09:11;100667.88;;;26.28;74.71
16595;BME280;8410;52.532;13.336;2023-07-16T06:11:39;100672.81;;;26.34;75.71
16595;BME280;8410;52.532;13.336;2023-07-16T06:14:06;100676.66;;;26.29;74.67
16595;BME280;8410;52.532;13.336;2023-07-16T06:16:34;100669.88;;;26.88;73.67
16595;BME280;8410;52.532;13.336;2023-07-16T06:19:01;100672.16;;;26.94;72.93
16595;BME280;8410;52.532;13.336;2023-07-16T06:21:31;100668.72;;;27.24;71.68
16595;BME280;8410;52.532;13.336;2023-07-16T06:24:00;100674.81;;;27.40;71.17
16595;BME280;8410;52.532;13.336;2023-07-16T06:26:28;100682.50;;;27.29;71.74
16595;BME280;8410;52.532;13.336;2023-07-16T06:28:55;100673.91;;;27.25;71.76
16595;BME280;8410;52.532;13.336;2023-07-16T06:31:23;100673.09;;;27.39;71.35
16595;BME280;8410;52.532;13.336;2023-07-16T06:33:52;100681.06;;;27.08;72.05
16595;BME280;8410;52.532;13.336;2023-07-16T06:36:19;100683.50;;;27.42;70.56
16595;BME280;8410;52.532;13.336;2023-07-16T06:38:47;100689.00;;;27.54;70.98
16595;BME280;8410;52.532;13.336;2023-07-16T06:41:17;100678.31;;;28.28;68.99
16595;BME280;8410;52.532;13.336;2023-07-16T06:43:45;100669.28;;;31.39;61.77
16595;BME280;8410;52.532;13.336;2023-07-16T06:46:12;100661.84;;;33.54;54.33
16595;BME280;8410;52.532;13.336;2023-07-16T06:48:40;100666.53;;;33.92;52.30
16595;BME280;8410;52.532;13.336;2023-07-16T06:51:08;100681.97;;;32.05;58.16
16595;BME280;8410;52.532;13.336;2023-07-16T06:53:35;100677.09;;;31.76;57.84
16595;BME280;8410;52.532;13.336;2023-07-16T06:56:03;100685.88;;;30.34;61.63
16595;BME280;8410;52.532;13.336;2023-07-16T06:58:33;100695.66;;;29.02;64.12
16595;BME280;8410;52.532;13.336;2023-07-16T07:01:01;100692.84;;;28.35;66.48
16595;BME280;8410;52.532;13.336;2023-07-16T07:03:28;100712.19;;;27.79;67.69
16595;BME280;8410;52.532;13.336;2023-07-16T07:05:56;100711.28;;;27.49;69.19
16595;BME280;8410;52.532;13.336;2023-07-16T07:08:23;100710.44;;;28.22;67.11
16595;BME280;8410;52.532;13.336;2023-07-16T07:10:51;100722.31;;;27.72;68.70
16595;BME280;8410;52.532;13.336;2023-07-16T07:13:18;100719.19;;;27.35;70.09
16595;BME280;8410;52.532;13.336;2023-07-16T07:15:47;100715.22;;;27.42;69.86
16595;BME280;8410;52.532;13.336;2023-07-16T07:18:15;100720.59;;;27.71;68.08
16595;BME280;8410;52.532;13.336;2023-07-16T07:20:42;100718.38;;;27.19;69.50
16595;BME280;8410;52.532;13.336;2023-07-16T07:23:10;100726.41;;;27.32;69.80
16595;BME280;8410;52.532;13.336;2023-07-16T07:25:37;100727.22;;;27.18;70.17
16595;BME280;8410;52.532;13.336;2023-07-16T07:28:05;100728.69;;;27.68;68.87
16595;BME280;8410;52.532;13.336;2023-07-16T07:30:32;100720.47;;;28.03;66.86
16595;BME280;8410;52.532;13.336;2023-07-16T07:33:01;100727.19;;;28.23;66.72
16595;BME280;8410;52.532;13.336;2023-07-16T07:35:29;100735.97;;;28.37;65.90
16595;BME280;8410;52.532;13.336;2023-07-16T07:37:57;100744.41;;;27.09;70.01
16595;BME280;8410;52.532;13.336;2023-07-16T07:40:25;100738.38;;;27.53;67.62
16595;BME280;8410;52.532;13.336;2023-07-16T07:42:52;100749.22;;;26.87;70.26
16595;BME280;8410;52.532;13.336;2023-07-16T07:45:20;100758.59;;;27.24;68.58
16595;BME280;8410;52.532;13.336;2023-07-16T07:47:47;100746.41;;;27.21;68.74
16595;BME280;8410;52.532;13.336;2023-07-16T07:50:16;100754.59;;;27.77;65.76
16595;BME280;8410;52.532;13.336;2023-07-16T07:52:44;100755.31;;;27.51;67.96
16595;BME280;8410;52.532;13.336;2023-07-16T07:55:11;100753.16;;;27.87;66.83
16595;BME280;8410;52.532;13.336;2023-07-16T07:57:39;100752.44;;;28.28;65.37
16595;BME280;8410;52.532;13.336;2023-07-16T08:00:07;100757.03;;;27.66;65.42
16595;BME280;8410;52.532;13.336;2023-07-16T08:02:38;100760.53;;;27.20;67.04
16595;BME280;8410;52.532;13.336;2023-07-16T08:05:06;100766.84;;;27.64;64.32
16595;BME280;8410;52.532;13.336;2023-07-16T08:07:36;100764.53;;;27.43;65.70
16595;BME280;8410;52.532;13.336;2023-07-16T08:10:04;100773.41;;;26.12;67.25
16595;BME280;8410;52.532;13.336;2023-07-16T08:12:31;100772.19;;;26.69;67.70
16595;BME280;8410;52.532;13.336;2023-07-16T08:14:59;100765.22;;;26.99;65.73
16595;BME280;8410;52.532;13.336;2023-07-16T08:17:26;100764.78;;;27.69;64.25
16595;BME280;8410;52.532;13.336;2023-07-16T08:19:54;100770.63;;;28.49;61.06
16595;BME280;8410;52.532;13.336;2023-07-16T08:22:21;100772.28;;;28.35;62.25
16595;BME280;8410;52.532;13.336;2023-07-16T08:24:51;100782.38;;;27.70;62.70
16595;BME280;8410;52.532;13.336;2023-07-16T08:27:19;100780.75;;;27.37;62.74
16595;BME280;8410;52.532;13.336;2023-07-16T08:29:46;100779.16;;;27.65;60.08
16595;BME280;8410;52.532;13.336;2023-07-16T08:32:14;100776.47;;;26.87;61.27
16595;BME280;8410;52.532;13.336;2023-07-16T08:34:41;100777.59;;;27.61;60.28
16595;BME280;8410;52.532;13.336;2023-07-16T08:37:09;100779.03;;;27.66;59.73
16595;BME280;8410;52.532;13.336;2023-07-16T08:39:36;100792.31;;;26.87;60.50
16595;BME280;8410;52.532;13.336;2023-07-16T08:42:06;100790.47;;;26.89;59.77
16595;BME280;8410;52.532;13.336;2023-07-16T08:44:36;100793.03;;;27.68;57.52
16595;BME280;8410;52.532;13.336;2023-07-16T08:47:05;100798.47;;;27.03;58.50
16595;BME280;8410;52.532;13.336;2023-07-16T08:49:34;100802.34;;;26.65;59.64
16595;BME280;8410;52.532;13.336;2023-07-16T08:52:02;100801.72;;;26.59;60.66
16595;BME280;8410;52.532;13.336;2023-07-16T08:54:30;100787.78;;;27.53;58.30
16595;BME280;8410;52.532;13.336;2023-07-16T08:56:57;100788.56;;;27.07;60.08
16595;BME280;8410;52.532;13.336;2023-07-16T08:59:27;100800.31;;;27.65;57.64
16595;BME280;8410;52.532;13.336;2023-07-16T09:01:55;100795.66;;;27.06;56.84
16595;BME280;8410;52.532;13.336;2023-07-16T09:04:24;100797.25;;;27.57;56.87
16595;BME280;8410;52.532;13.336;2023-07-16T09:06:51;100794.94;;;27.97;55.57
16595;BME280;8410;52.532;13.336;2023-07-16T09:09:19;100798.56;;;28.38;55.38
16595;BME280;8410;52.532;13.336;2023-07-16T09:11:48;100796.81;;;28.53;54.99
16595;BME280;8410;52.532;13.336;2023-07-16T09:14:17;100801.81;;;28.44;55.72
16595;BME280;8410;52.532;13.336;2023-07-16T09:16:48;100798.97;;;28.75;53.74
16595;BME280;8410;52.532;13.336;2023-07-16T09:19:17;100812.78;;;27.31;56.22
16595;BME280;8410;52.532;13.336;2023-07-16T09:21:48;100824.06;;;27.51;55.21
16595;BME280;8410;52.532;13.336;2023-07-16T09:24:16;100815.53;;;27.45;55.00
16595;BME280;8410;52.532;13.336;2023-07-16T09:26:47;100815.94;;;27.06;54.33
16595;BME280;8410;52.532;13.336;2023-07-16T09:29:15;100819.66;;;27.65;52.77
16595;BME280;8410;52.532;13.336;2023-07-16T09:32:00;100810.84;;;27.51;53.34
16595;BME280;8410;52.532;13.336;2023-07-16T09:34:29;100806.25;;;27.84;52.86
16595;BME280;8410;52.532;13.336;2023-07-16T09:36:57;100801.25;;;28.82;51.96
16595;BME280;8410;52.532;13.336;2023-07-16T09:39:26;100819.81;;;28.08;52.13
16595;BME280;8410;52.532;13.336;2023-07-16T09:41:54;100812.97;;;28.34;51.65
16595;BME280;8410;52.532;13.336;2023-07-16T09:44:23;100813.00;;;28.49;51.98
16595;BME280;8410;52.532;13.336;2023-07-16T09:46:51;100806.63;;;28.80;51.26
16595;BME280;8410;52.532;13.336;2023-07-16T09:49:20;100809.34;;;28.21;52.51
16595;BME280;8410;52.532;13.336;2023-07-16T09:51:48;100804.66;;;28.69;52.38
16595;BME280;8410;52.532;13.336;2023-07-16T09:54:18;100811.28;;;28.48;51.83
16595;BME280;8410;52.532;13.336;2023-07-16T09:56:48;100808.97;;;28.27;51.21
16595;BME280;8410;52.532;13.336;2023-07-16T09:59:20;100809.75;;;28.87;50.57
16595;BME280;8410;52.532;13.336;2023-07-16T10:01:50;100805.81;;;29.21;49.60
16595;BME280;8410;52.532;13.336;2023-07-16T10:04:20;100805.81;;;29.21;49.68
16595;BME280;8410;52.532;13.336;2023-07-16T10:06:53;100813.78;;;29.48;48.40
16595;BME280;8410;52.532;13.336;2023-07-16T10:09:50;100818.09;;;28.80;50.43
16595;BME280;8410;52.532;13.336;2023-07-16T10:12:19;100812.50;;;29.41;50.27
16595;BME280;8410;52.532;13.336;2023-07-16T10:14:49;100803.03;;;29.10;50.70
16595;BME280;8410;52.532;13.336;2023-07-16T10:17:18;100810.34;;;30.00;49.74
16595;BME280;8410;52.532;13.336;2023-07-16T10:19:51;100820.38;;;28.72;50.71
16595;BME280;8410;52.532;13.336;2023-07-16T10:22:19;100818.63;;;28.43;52.31
16595;BME280;8410;52.532;13.336;2023-07-16T10:24:53;100820.63;;;28.39;52.34
16595;BME280;8410;52.532;13.336;2023-07-16T10:27:27;100805.94;;;29.46;49.84
16595;BME280;8410;52.532;13.336;2023-07-16T10:29:55;100812.66;;;28.96;51.15
16595;BME280;8410;52.532;13.336;2023-07-16T10:32:26;100816.41;;;28.51;51.23
16595;BME280;8410;52.532;13.336;2023-07-16T10:34:56;100820.72;;;27.93;52.26
16595;BME280;8410;52.532;13.336;2023-07-16T10:37:24;100820.44;;;27.98;52.76
16595;BME280;8410;52.532;13.336;2023-07-16T10:39:53;100824.72;;;28.88;51.70
16595;BME280;8410;52.532;13.336;2023-07-16T10:42:22;100822.25;;;28.42;52.72
16595;BME280;8410;52.532;13.336;2023-07-16T10:44:51;100821.88;;;28.48;51.65
16595;BME280;8410;52.532;13.336;2023-07-16T10:47:22;100819.22;;;28.33;51.59
16595;BME280;8410;52.532;13.336;2023-07-16T10:49:50;100819.22;;;28.62;51.91
16595;BME280;8410;52.532;13.336;2023-07-16T10:52:21;100822.41;;;29.24;50.62
16595;BME280;8410;52.532;13.336;2023-07-16T10:54:49;100815.38;;;29.65;50.39
16595;BME280;8410;52.532;13.336;2023-07-16T10:57:18;100811.06;;;29.08;51.71
16595;BME280;8410;52.532;13.336;2023-07-16T10:59:45;100819.41;;;29.16;51.10
16595;BME280;8410;52.532;13.336;2023-07-16T11:02:16;100821.59;;;29.37;50.22
16595;BME280;8410;52.532;13.336;2023-07-16T11:04:45;100820.53;;;29.39;48.95
16595;BME280;8410;52.532;13.336;2023-07-16T11:07:14;100828.63;;;29.78;48.60
16595;BME280;8410;52.532;13.336;2023-07-16T11:09:44;100817.75;;;29.95;48.12
16595;BME280;8410;52.532;13.336;2023-07-16T11:12:13;100826.75;;;29.53;48.36
16595;BME280;8410;52.532;13.336;2023-07-16T11:14:43;100822.84;;;29.31;48.55
16595;BME280;8410;52.532;13.336;2023-07-16T11:17:12;100821.69;;;28.79;50.15
16595;BME280;8410;52.532;13.336;2023-07-16T11:19:41;100816.06;;;29.27;49.81
16595;BME280;8410;52.532;13.336;2023-07-16T11:22:13;100817.53;;;28.47;51.05
16595;BME280;8410;52.532;13.336;2023-07-16T11:24:44;100819.00;;;29.08;50.17
16595;BME280;8410;52.532;13.336;2023-07-16T11:27:13;100823.25;;;29.79;49.73
16595;BME280;8410;52.532;13.336;2023-07-16T11:29:45;100812.03;;;30.01;49.08
16595;BME280;8410;52.532;13.336;2023-07-16T11:32:14;100812.66;;;29.92;49.89
16595;BME280;8410;52.532;13.336;2023-07-16T11:34:54;100813.72;;;29.62;49.10
16595;BME280;8410;52.532;13.336;2023-07-16T11:37:24;100813.22;;;29.16;50.52
16595;BME280;8410;52.532;13.336;2023-07-16T11:39:56;100814.53;;;29.23;49.98
16595;BME280;8410;52.532;13.336;2023-07-16T11:42:27;100814.34;;;29.93;48.45
16595;BME280;8410;52.532;13.336;2023-07-16T11:44:56;100815.09;;;29.55;49.41
16595;BME280;8410;52.532;13.336;2023-07-16T11:47:23;100805.31;;;29.56;48.63
16595;BME280;8410;52.532;13.336;2023-07-16T11:49:51;100807.78;;;29.86;48.14
16595;BME280;8410;52.532;13.336;2023-07-16T11:52:20;100809.25;;;29.90;46.10
16595;BME280;8410;52.532;13.336;2023-07-16T11:54:48;100816.97;;;28.85;48.95
16595;BME280;8410;52.532;13.336;2023-07-16T11:57:17;100819.97;;;29.07;47.82
16595;BME280;8410;52.532;13.336;2023-07-16T11:59:45;100820.69;;;29.78;46.86
16595;BME280;8410;52.532;13.336;2023-07-16T12:02:13;100818.69;;;30.34;45.52
16595;BME280;8410;52.532;13.336;2023-07-16T12:04:41;100815.09;;;29.55;44.06
16595;BME280;8410;52.532;13.336;2023-07-16T12:07:08;100818.66;;;29.41;43.69
16595;BME280;8410;52.532;13.336;2023-07-16T12:09:36;100817.50;;;29.85;44.01
16595;BME280;8410;52.532;13.336;2023-07-16T12:12:04;100820.34;;;29.01;43.32
16595;BME280;8410;52.532;13.336;2023-07-16T12:14:33;100822.94;;;28.74;43.77
16595;BME280;8410;52.532;13.336;2023-07-16T12:17:01;100814.75;;;29.20;42.68
16595;BME280;8410;52.532;13.336;2023-07-16T12:19:28;100830.88;;;29.30;43.02
16595;BME280;8410;52.532;13.336;2023-07-16T12:21:57;100835.59;;;29.93;41.34
16595;BME280;8410;52.532;13.336;2023-07-16T12:24:25;100843.88;;;29.88;40.81
16595;BME280;8410;52.532;13.336;2023-07-16T12:26:53;100830.94;;;30.22;40.60
16595;BME280;8410;52.532;13.336;2023-07-16T12:29:20;100831.13;;;29.81;39.65
16595;BME280;8410;52.532;13.336;2023-07-16T12:31:49;100840.28;;;29.48;39.03
16595;BME280;8410;52.532;13.336;2023-07-16T12:34:16;100843.66;;;30.04;37.80
16595;BME280;8410;52.532;13.336;2023-07-16T12:36:44;100836.25;;;29.97;38.21
16595;BME280;8410;52.532;13.336;2023-07-16T12:39:11;100831.34;;;30.03;37.03
16595;BME280;8410;52.532;13.336;2023-07-16T12:41:39;100837.16;;;29.83;38.49
16595;BME280;8410;52.532;13.336;2023-07-16T12:44:06;100836.16;;;29.44;39.23
16595;BME280;8410;52.532;13.336;2023-07-16T12:46:34;100834.97;;;29.35;38.48
16595;BME280;8410;52.532;13.336;2023-07-16T12:49:03;100829.81;;;29.74;38.05
16595;BME280;8410;52.532;13.336;2023-07-16T12:51:30;100828.78;;;29.89;37.59
16595;BME280;8410;52.532;13.336;2023-07-16T12:53:57;100825.63;;;30.09;37.43
16595;BME280;8410;52.532;13.336;2023-07-16T12:56:27;100834.31;;;29.99;38.76